createdAt,value
2019-04-05T00:01:04.977Z,92.69
2019-04-05T00:03:33.202Z,91.89
2019-04-05T00:06:01.656Z,93.30
2019-04-05T00:08:29.888Z,93.37
2019-04-05T00:10:58.116Z,89.68
2019-04-05T00:13:26.564Z,93.60
2019-04-05T00:15:54.790Z,89.43
2019-04-05T00:18:23.015Z,90.87
2019-04-05T00:20:51.252Z,90.15
2019-04-05T00:23:19.479Z,90.47
2019-04-05T00:25:47.720Z,91.18
2019-04-05T00:28:16.118Z,91.44
2019-04-05T00:30:44.840Z,91.99
2019-04-05T00:33:13.291Z,92.86
2019-04-05T00:35:41.527Z,91.91
2019-04-05T00:38:09.985Z,93.13
2019-04-05T00:40:38.215Z,94.02
2019-04-05T00:43:06.438Z,93.77
2019-04-05T00:45:34.674Z,93.72
2019-04-05T00:48:02.891Z,93.91
2019-04-05T00:50:31.127Z,94.20
2019-04-05T00:52:59.579Z,93.55
2019-04-05T00:55:28.041Z,93.59
2019-04-05T00:57:56.488Z,93.94
2019-04-05T01:00:25.717Z,93.54
2019-04-05T01:02:53.944Z,93.98
2019-04-05T01:05:22.397Z,93.82
2019-04-05T01:07:50.914Z,93.61
2019-04-05T01:10:19.585Z,93.08
2019-04-05T01:12:47.816Z,92.21
2019-04-05T01:15:16.187Z,93.73
2019-04-05T01:17:44.415Z,93.34
2019-04-05T01:20:13.086Z,94.35
2019-04-05T01:22:41.877Z,93.71
2019-04-05T01:25:10.461Z,93.31
2019-04-05T01:27:40.165Z,93.77
2019-04-05T01:30:13.771Z,92.23
2019-04-05T01:32:42.216Z,92.50
2019-04-05T01:35:10.733Z,91.27
2019-04-05T01:37:38.972Z,90.66
2019-04-05T01:40:07.930Z,92.06
2019-04-05T01:42:37.303Z,91.41
2019-04-05T01:45:08.807Z,92.46
2019-04-05T01:47:37.636Z,91.50
2019-04-05T01:50:08.527Z,91.32
2019-04-05T01:52:37.024Z,92.13
2019-04-05T01:55:08.270Z,92.84
2019-04-05T01:57:36.519Z,92.52
2019-04-05T02:00:07.885Z,92.94
2019-04-05T02:02:36.117Z,91.83
2019-04-05T02:05:07.551Z,91.62
2019-04-05T02:07:36.191Z,91.88
2019-04-05T02:10:10.029Z,90.98
2019-04-05T02:12:38.840Z,92.23
2019-04-05T02:15:08.965Z,91.95
2019-04-05T02:17:37.497Z,92.25
2019-04-05T02:20:07.333Z,91.06
2019-04-05T02:22:35.572Z,92.61
2019-04-05T02:25:05.870Z,92.54
2019-04-05T02:27:34.113Z,93.42
2019-04-05T02:30:02.405Z,93.48
2019-04-05T02:32:30.639Z,93.54
2019-04-05T02:34:59.106Z,90.85
2019-04-05T02:37:27.332Z,94.22
2019-04-05T02:39:55.560Z,94.34
2019-04-05T02:42:23.994Z,94.22
2019-04-05T02:44:52.577Z,94.71
2019-04-05T02:47:21.285Z,92.33
2019-04-05T02:49:50.215Z,91.83
2019-04-05T02:52:19.898Z,92.73
2019-04-05T02:54:48.497Z,91.80
2019-04-05T02:57:16.815Z,91.84
2019-04-05T02:59:45.336Z,90.43
2019-04-05T03:02:13.566Z,89.90
2019-04-05T03:04:41.801Z,87.73
2019-04-05T03:07:10.105Z,89.11
2019-04-05T03:09:38.507Z,90.39
2019-04-05T03:12:07.113Z,89.90
2019-04-05T03:14:35.507Z,88.40
2019-04-05T03:17:03.828Z,90.50
2019-04-05T03:19:33.916Z,89.74
2019-04-05T03:22:04.444Z,87.06
2019-04-05T03:24:34.591Z,86.35
2019-04-05T03:27:05.425Z,83.95
2019-04-05T03:29:33.731Z,84.64
2019-04-05T03:32:02.413Z,84.82
2019-04-05T03:34:30.987Z,84.53
2019-04-05T03:36:59.527Z,83.54
2019-04-05T03:39:28.243Z,83.30
2019-04-05T03:41:56.536Z,82.13
2019-04-05T03:44:25.075Z,82.18
2019-04-05T03:46:57.228Z,82.95
2019-04-05T03:49:24.066Z,83.42
2019-04-05T03:51:52.285Z,84.12
2019-04-05T03:54:20.821Z,84.54
2019-04-05T03:56:49.118Z,84.63
2019-04-05T03:59:17.575Z,84.81
2019-04-05T04:01:45.888Z,85.43
2019-04-05T04:04:14.124Z,86.05
2019-04-05T04:06:42.629Z,86.33
2019-04-05T04:09:10.881Z,87.76
2019-04-05T04:11:39.109Z,87.33
2019-04-05T04:14:07.514Z,88.81
2019-04-05T04:16:36.116Z,89.49
2019-04-05T04:19:04.425Z,89.21
2019-04-05T04:21:41.668Z,89.79
2019-04-05T04:24:10.273Z,88.39
2019-04-05T04:26:38.681Z,86.08
2019-04-05T04:29:06.929Z,89.05
2019-04-05T04:31:35.290Z,90.18
2019-04-05T04:34:03.518Z,89.60
2019-04-05T04:36:31.757Z,89.50
2019-04-05T04:38:59.988Z,90.51
2019-04-05T04:41:31.736Z,88.95
2019-04-05T04:43:58.396Z,90.17
2019-04-05T04:46:26.636Z,89.66
2019-04-05T04:48:55.087Z,89.68
2019-04-05T04:51:23.705Z,88.24
2019-04-05T04:53:52.194Z,88.29
2019-04-05T04:56:20.606Z,87.76
2019-04-05T04:58:48.832Z,86.76
2019-04-05T05:01:17.069Z,85.59
2019-04-05T05:03:45.298Z,84.94
2019-04-05T05:06:13.709Z,85.75
2019-04-05T05:08:41.937Z,86.36
2019-04-05T05:11:14.858Z,85.20
2019-04-05T05:13:40.794Z,87.76
2019-04-05T05:16:09.330Z,87.37
2019-04-05T05:18:37.625Z,87.98
2019-04-05T05:21:06.433Z,86.57
2019-04-05T05:23:34.832Z,86.14
2019-04-05T05:26:03.365Z,88.33
2019-04-05T05:28:32.870Z,87.80
2019-04-05T05:31:01.107Z,86.40
2019-04-05T05:33:29.403Z,84.71
2019-04-05T05:35:57.861Z,84.86
2019-04-05T05:38:26.097Z,84.48
2019-04-05T05:40:54.355Z,84.91
2019-04-05T05:43:23.984Z,83.82
2019-04-05T05:45:52.556Z,83.86
2019-04-05T05:48:20.795Z,84.10
2019-04-05T05:50:49.029Z,83.87
2019-04-05T05:53:17.267Z,85.70
2019-04-05T05:55:45.497Z,84.76
2019-04-05T05:58:13.737Z,85.54
2019-04-05T06:00:41.966Z,84.99
2019-04-05T06:03:11.233Z,85.63
2019-04-05T06:05:40.148Z,84.81
2019-04-05T06:08:08.599Z,84.31
2019-04-05T06:10:36.873Z,84.42
2019-04-05T06:13:07.135Z,84.74
2019-04-05T06:15:37.423Z,84.70
2019-04-05T06:18:05.371Z,85.08
2019-04-05T06:20:33.948Z,83.06
2019-04-05T06:23:02.185Z,83.89
2019-04-05T06:25:30.529Z,83.68
2019-04-05T06:27:59.913Z,81.75
2019-04-05T06:30:28.881Z,81.86
2019-04-05T06:32:57.325Z,80.83
2019-04-05T06:35:25.555Z,81.30
2019-04-05T06:37:53.805Z,80.76
2019-04-05T06:40:22.033Z,80.89
2019-04-05T06:42:50.271Z,80.90
2019-04-05T06:45:18.580Z,80.79
2019-04-05T06:47:46.826Z,80.41
2019-04-05T06:50:15.896Z,80.62
2019-04-05T06:52:44.136Z,80.54
2019-04-05T06:55:12.695Z,80.39
2019-04-05T06:57:40.940Z,80.04
2019-04-05T07:00:09.571Z,80.48
2019-04-05T07:02:38.140Z,79.82
2019-04-05T07:05:07.545Z,79.92
2019-04-05T07:07:35.785Z,79.98
2019-04-05T07:10:05.453Z,80.65
2019-04-05T07:12:33.706Z,80.94
2019-04-05T07:15:02.149Z,80.46
2019-04-05T07:17:30.384Z,79.93
2019-04-05T07:19:58.614Z,79.99
2019-04-05T07:22:38.666Z,80.00
2019-04-05T07:24:56.812Z,79.92
2019-04-05T07:27:25.053Z,79.81
2019-04-05T07:29:53.283Z,79.30
2019-04-05T07:32:21.523Z,78.89
2019-04-05T07:34:49.755Z,79.27
2019-04-05T07:37:18.229Z,79.20
2019-04-05T07:39:46.462Z,79.50
2019-04-05T07:42:14.710Z,79.76
2019-04-05T07:44:42.946Z,79.75
2019-04-05T07:47:11.262Z,79.52
2019-04-05T07:49:39.502Z,79.53
2019-04-05T07:52:07.744Z,79.76
2019-04-05T07:54:35.980Z,79.90
2019-04-05T07:57:04.399Z,79.39
2019-04-05T07:59:32.624Z,79.33
2019-04-05T08:02:00.851Z,79.19
2019-04-05T08:04:29.093Z,79.09
2019-04-05T08:06:59.700Z,78.89
2019-04-05T08:09:28.209Z,79.23
2019-04-05T08:11:56.817Z,79.68
2019-04-05T08:14:25.235Z,80.02
2019-04-05T08:16:53.731Z,79.80
2019-04-05T08:19:21.974Z,78.79
2019-04-05T08:21:50.502Z,78.65
2019-04-05T08:24:18.971Z,78.88
2019-04-05T08:26:47.200Z,78.69
2019-04-05T08:29:15.444Z,78.94
2019-04-05T08:31:43.908Z,78.55
2019-04-05T08:34:12.448Z,79.06
2019-04-05T08:36:40.683Z,78.93
2019-04-05T08:39:09.088Z,78.72
2019-04-05T08:41:37.326Z,78.22
2019-04-05T08:44:05.899Z,77.95
2019-04-05T08:46:34.427Z,78.13
2019-04-05T08:49:10.637Z,78.24
2019-04-05T08:51:32.592Z,78.89
2019-04-05T08:54:01.060Z,78.36
2019-04-05T08:56:29.511Z,77.85
2019-04-05T08:58:57.747Z,77.51
2019-04-05T09:01:25.982Z,78.82
2019-04-05T09:03:54.217Z,78.23
2019-04-05T09:06:22.443Z,77.96
2019-04-05T09:08:50.944Z,78.46
2019-04-05T09:11:19.228Z,78.60
2019-04-05T09:13:47.520Z,78.92
2019-04-05T09:16:16.082Z,78.94
2019-04-05T09:18:44.561Z,78.84
2019-04-05T09:21:12.791Z,78.04
2019-04-05T09:23:41.029Z,78.39
2019-04-05T09:26:09.597Z,78.53
2019-04-05T09:28:37.830Z,78.35
2019-04-05T09:31:06.116Z,78.30
2019-04-05T09:33:34.631Z,77.91
2019-04-05T09:36:02.869Z,78.23
2019-04-05T09:38:31.103Z,78.12
2019-04-05T09:40:59.662Z,78.19
2019-04-05T09:43:28.115Z,78.00
2019-04-05T09:45:56.370Z,77.58
2019-04-05T09:48:24.580Z,77.95
2019-04-05T09:50:52.888Z,77.92
2019-04-05T09:53:21.115Z,77.79
2019-04-05T09:55:49.637Z,78.10
2019-04-05T09:58:18.089Z,78.17
2019-04-05T10:00:46.384Z,77.86
2019-04-05T10:03:14.556Z,78.01
2019-04-05T10:05:42.804Z,77.77
2019-04-05T10:08:11.332Z,77.91
2019-04-05T10:10:39.820Z,77.21
2019-04-05T10:13:09.799Z,77.42
2019-04-05T10:15:38.010Z,77.29
2019-04-05T10:18:06.256Z,77.38
2019-04-05T10:20:34.487Z,77.32
2019-04-05T10:23:02.760Z,76.91
2019-04-05T10:25:30.992Z,76.89
2019-04-05T10:27:59.257Z,77.05
2019-04-05T10:30:27.773Z,76.77
2019-04-05T10:32:56.256Z,76.17
2019-04-05T10:35:24.496Z,76.18
2019-04-05T10:37:52.731Z,76.26
2019-04-05T10:40:21.031Z,76.21
2019-04-05T10:42:49.567Z,76.33
2019-04-05T10:45:17.976Z,76.60
2019-04-05T10:47:46.560Z,76.83
2019-04-05T10:50:15.539Z,76.89
2019-04-05T10:52:44.115Z,77.60
2019-04-05T10:55:12.981Z,77.46
2019-04-05T10:57:41.226Z,76.90
2019-04-05T11:00:12.769Z,75.05
2019-04-05T11:02:41.008Z,74.79
2019-04-05T11:05:09.801Z,74.73
2019-04-05T11:07:38.263Z,75.18
2019-04-05T11:10:09.270Z,75.08
2019-04-05T11:12:37.509Z,75.45
2019-04-05T11:15:07.278Z,75.59
2019-04-05T11:17:35.903Z,75.11
2019-04-05T11:20:20.672Z,74.72
2019-04-05T11:22:37.815Z,74.97
2019-04-05T11:25:07.489Z,75.60
2019-04-05T11:27:36.053Z,74.77
2019-04-05T11:30:07.088Z,74.32
2019-04-05T11:32:35.483Z,74.18
2019-04-05T11:35:05.316Z,74.47
2019-04-05T11:37:33.633Z,74.10
2019-04-05T11:40:01.937Z,73.94
2019-04-05T11:42:33.038Z,74.33
2019-04-05T11:45:01.085Z,74.56
2019-04-05T11:47:29.315Z,74.15
2019-04-05T11:49:58.814Z,73.74
2019-04-05T11:52:27.053Z,74.11
2019-04-05T11:54:55.928Z,73.68
2019-04-05T11:57:24.409Z,74.11
2019-04-05T11:59:52.643Z,74.17
2019-04-05T12:02:28.846Z,74.25
2019-04-05T12:04:58.975Z,74.06
2019-04-05T12:07:27.504Z,73.65
2019-04-05T12:09:56.144Z,74.20
2019-04-05T12:12:25.720Z,74.21
2019-04-05T12:14:54.053Z,73.78
2019-04-05T12:17:22.527Z,72.48
2019-04-05T12:19:50.758Z,72.77
2019-04-05T12:22:20.074Z,72.49
2019-04-05T12:24:48.411Z,72.73
2019-04-05T12:27:16.871Z,72.47
2019-04-05T12:29:45.099Z,73.40
2019-04-05T12:32:17.902Z,73.07
2019-04-05T12:34:43.670Z,73.68
2019-04-05T12:37:12.131Z,73.60
2019-04-05T12:39:40.527Z,73.51
2019-04-05T12:42:11.931Z,73.13
2019-04-05T12:44:38.955Z,72.89
2019-04-05T12:47:07.193Z,72.79
2019-04-05T12:49:35.422Z,74.04
2019-04-05T12:52:03.667Z,73.32
2019-04-05T12:54:31.892Z,73.50
2019-04-05T12:57:00.119Z,73.28
2019-04-05T12:59:28.473Z,74.25
2019-04-05T13:01:59.515Z,74.47
2019-04-05T13:04:26.987Z,73.82
2019-04-05T13:06:55.549Z,73.73
2019-04-05T13:09:24.684Z,73.58
2019-04-05T13:11:56.482Z,73.90
2019-04-05T13:14:26.139Z,74.00
2019-04-05T13:16:53.220Z,74.94
2019-04-05T13:19:21.462Z,74.27
2019-04-05T13:21:49.691Z,74.72
2019-04-05T13:24:17.933Z,74.95
2019-04-05T13:26:46.159Z,74.91
2019-04-05T13:29:14.737Z,75.39
2019-04-05T13:31:43.219Z,74.99
2019-04-05T13:34:11.700Z,74.62
2019-04-05T13:36:40.102Z,74.60
2019-04-05T13:39:09.119Z,74.11
2019-04-05T13:41:37.349Z,74.24
2019-04-05T13:44:06.089Z,74.34
2019-04-05T13:46:38.291Z,74.52
2019-04-05T13:49:04.585Z,74.29
2019-04-05T13:51:32.885Z,74.26
2019-04-05T13:54:01.125Z,74.30
2019-04-05T13:56:29.587Z,75.17
2019-04-05T13:58:57.829Z,74.75
2019-04-05T14:01:26.067Z,74.52
2019-04-05T14:03:54.612Z,74.14
2019-04-05T14:06:23.199Z,74.07
2019-04-05T14:08:51.568Z,73.43
2019-04-05T14:11:19.803Z,73.23
2019-04-05T14:13:48.045Z,73.09
2019-04-05T14:16:16.280Z,72.32
2019-04-05T14:18:49.392Z,71.81
2019-04-05T14:21:14.930Z,72.02
2019-04-05T14:23:43.166Z,72.35
2019-04-05T14:26:11.409Z,72.21
2019-04-05T14:28:39.950Z,72.16
2019-04-05T14:31:08.193Z,71.97
2019-04-05T14:33:36.909Z,71.80
2019-04-05T14:36:05.159Z,71.85
2019-04-05T14:38:33.390Z,72.56
2019-04-05T14:41:01.634Z,73.28
2019-04-05T14:43:29.865Z,73.41
2019-04-05T14:45:58.104Z,73.94
2019-04-05T14:48:28.054Z,73.61
2019-04-05T14:50:57.878Z,73.29
2019-04-05T14:53:26.249Z,74.63
2019-04-05T14:55:54.561Z,74.25
2019-04-05T14:58:22.794Z,74.82
2019-04-05T15:00:51.033Z,74.43
2019-04-05T15:03:19.266Z,74.80
2019-04-05T15:05:47.504Z,74.77
2019-04-05T15:08:15.985Z,74.55
2019-04-05T15:10:44.225Z,74.42
2019-04-05T15:13:12.455Z,74.80
2019-04-05T15:15:40.699Z,75.25
2019-04-05T15:18:09.158Z,75.37
2019-04-05T15:20:37.615Z,75.35
2019-04-05T15:23:06.139Z,75.63
2019-04-05T15:25:34.448Z,75.61
2019-04-05T15:28:02.679Z,75.56
2019-04-05T15:30:30.927Z,75.47
2019-04-05T15:33:01.100Z,75.12
2019-04-05T15:35:29.350Z,75.36
2019-04-05T15:38:01.426Z,75.21
2019-04-05T15:40:28.731Z,75.08
2019-04-05T15:42:57.865Z,75.29
2019-04-05T15:45:26.100Z,76.03
2019-04-05T15:47:54.651Z,75.47
2019-04-05T15:50:22.954Z,75.27
2019-04-05T15:52:51.207Z,75.53
2019-04-05T15:55:19.510Z,76.10
2019-04-05T15:57:47.755Z,76.03
2019-04-05T16:00:18.060Z,76.63
2019-04-05T16:02:46.296Z,76.48
2019-04-05T16:05:14.964Z,76.23
2019-04-05T16:07:43.425Z,77.06
2019-04-05T16:10:12.116Z,76.94
2019-04-05T16:12:40.351Z,76.33
2019-04-05T16:15:09.448Z,76.31
2019-04-05T16:17:37.685Z,76.21
2019-04-05T16:20:12.618Z,75.88
2019-04-05T16:22:41.142Z,75.78
2019-04-05T16:25:09.499Z,75.94
2019-04-05T16:27:37.736Z,75.96
2019-04-05T16:30:07.231Z,76.54
2019-04-05T16:32:35.695Z,77.20
2019-04-05T16:35:06.358Z,76.45
2019-04-05T16:37:34.815Z,76.70
2019-04-05T16:40:04.124Z,76.64
2019-04-05T16:42:32.624Z,76.57
2019-04-05T16:45:01.080Z,76.71
2019-04-05T16:47:29.325Z,76.67
2019-04-05T16:49:57.548Z,76.77
2019-04-05T16:52:25.790Z,77.00
2019-04-05T16:54:54.015Z,77.50
2019-04-05T16:57:22.258Z,77.98
2019-04-05T16:59:50.484Z,78.33
2019-04-05T17:02:18.727Z,78.69
2019-04-05T17:04:46.971Z,78.98
2019-04-05T17:07:15.200Z,80.13
2019-04-05T17:09:43.472Z,81.20
2019-04-05T17:12:11.714Z,80.62
2019-04-05T17:14:39.976Z,81.71
2019-04-05T17:17:08.212Z,81.08
2019-04-05T17:19:36.453Z,81.27
2019-04-05T17:22:04.958Z,81.55
2019-04-05T17:24:33.199Z,82.88
2019-04-05T17:27:01.431Z,82.53
2019-04-05T17:29:29.669Z,82.74
2019-04-05T17:31:58.123Z,82.96
2019-04-05T17:34:26.590Z,83.91
2019-04-05T17:36:54.848Z,83.59
2019-04-05T17:39:23.147Z,84.59
2019-04-05T17:41:51.395Z,84.00
2019-04-05T17:44:19.639Z,84.07
2019-04-05T17:46:47.876Z,84.31
2019-04-05T17:49:16.121Z,84.58
2019-04-05T17:51:44.347Z,84.72
2019-04-05T17:54:12.867Z,84.94
2019-04-05T17:56:41.172Z,85.25
2019-04-05T17:59:10.176Z,85.61
2019-04-05T18:01:38.897Z,85.54
2019-04-05T18:04:07.522Z,86.53
2019-04-05T18:06:35.751Z,87.01
2019-04-05T18:09:05.444Z,86.57
2019-04-05T18:11:33.845Z,86.11
2019-04-05T18:14:02.100Z,86.42
2019-04-05T18:16:30.399Z,86.35
2019-04-05T18:18:58.655Z,86.83
2019-04-05T18:21:26.892Z,86.26
2019-04-05T18:23:55.371Z,86.55
2019-04-05T18:26:23.615Z,86.36
2019-04-05T18:28:51.850Z,86.47
2019-04-05T18:31:20.090Z,86.32
2019-04-05T18:33:48.322Z,86.66
2019-04-05T18:36:16.557Z,86.62
2019-04-05T18:38:44.782Z,88.56
2019-04-05T18:41:13.022Z,86.93
2019-04-05T18:43:41.256Z,86.91
2019-04-05T18:46:09.492Z,87.53
2019-04-05T18:48:37.729Z,87.89
2019-04-05T18:51:05.964Z,87.68
2019-04-05T18:53:37.795Z,86.81
2019-04-05T18:56:04.715Z,88.05
2019-04-05T18:58:32.976Z,87.06
2019-04-05T19:01:01.181Z,87.42
2019-04-05T19:03:29.463Z,86.92
2019-04-05T19:05:57.704Z,86.98
2019-04-05T19:08:38.722Z,88.32
2019-04-05T19:10:55.993Z,87.65
2019-04-05T19:13:24.220Z,87.24
2019-04-05T19:15:52.493Z,87.22
2019-04-05T19:18:21.097Z,87.28
2019-04-05T19:20:49.738Z,87.36
2019-04-05T19:23:17.969Z,87.79
2019-04-05T19:25:46.765Z,88.84
2019-04-05T19:28:15.111Z,87.40
2019-04-05T19:50:43.456Z,88.05
2019-04-05T19:53:11.704Z,88.13
2019-04-05T19:55:39.933Z,88.37
2019-04-05T19:58:08.178Z,88.65
2019-04-05T20:00:36.716Z,87.83
2019-04-05T20:03:05.631Z,88.10
2019-04-05T20:05:33.839Z,87.76
2019-04-05T20:08:02.368Z,89.16
2019-04-05T20:10:30.851Z,89.15
2019-04-05T20:12:59.345Z,89.21
2019-04-05T20:15:27.555Z,89.45
2019-04-05T20:17:55.797Z,88.39
2019-04-05T20:20:24.024Z,88.59
2019-04-05T20:22:52.261Z,89.67
2019-04-05T20:25:20.495Z,88.85
2019-04-05T20:27:48.727Z,90.02
2019-04-05T20:30:16.961Z,88.39
2019-04-05T20:32:45.201Z,88.70
2019-04-05T20:35:13.505Z,89.37
2019-04-05T20:37:41.746Z,88.25
2019-04-05T20:40:10.495Z,89.41
2019-04-05T20:42:38.736Z,90.03
2019-04-05T20:45:06.971Z,88.35
2019-04-05T20:47:35.220Z,89.02
2019-04-05T20:50:04.315Z,88.91
2019-04-05T20:52:32.558Z,88.42
2019-04-05T20:55:01.069Z,88.08
2019-04-05T20:57:29.563Z,87.94
2019-04-05T20:59:57.791Z,87.84
2019-04-05T21:02:26.021Z,90.00
2019-04-05T21:04:54.259Z,89.17
2019-04-05T21:07:22.726Z,89.09
2019-04-05T21:09:51.083Z,89.99
2019-04-05T21:12:19.263Z,89.16
2019-04-05T21:14:47.731Z,89.84
2019-04-05T21:17:15.961Z,89.67
2019-04-05T21:19:44.430Z,88.60
2019-04-05T21:22:12.662Z,89.21
2019-04-05T21:24:41.123Z,89.67
2019-04-05T21:27:09.351Z,88.41
2019-04-05T21:29:37.584Z,88.19
2019-04-05T21:32:05.813Z,88.11
2019-04-05T21:34:34.052Z,88.28
2019-04-05T21:37:02.284Z,88.34
2019-04-05T21:39:30.520Z,88.61
2019-04-05T21:41:58.752Z,88.42
2019-04-05T21:44:26.991Z,88.82
2019-04-05T21:46:55.225Z,89.35
2019-04-05T21:49:23.475Z,88.37
2019-04-05T21:51:51.699Z,89.01
2019-04-05T21:54:20.231Z,88.81
2019-04-05T21:56:48.691Z,89.52
2019-04-05T21:59:16.927Z,88.42
2019-04-05T22:01:45.384Z,88.34
2019-04-05T22:04:13.853Z,88.13
2019-04-05T22:06:42.112Z,89.11
2019-04-05T22:09:10.462Z,89.41
2019-04-05T22:11:39.274Z,88.30
2019-04-05T22:14:07.505Z,88.76
2019-04-05T22:16:35.736Z,88.08
2019-04-05T22:19:03.972Z,87.97
2019-04-05T22:21:32.212Z,88.73
2019-04-05T22:24:00.671Z,88.54
2019-04-05T22:26:29.138Z,89.57
2019-04-05T22:28:57.363Z,89.65
2019-04-05T22:31:25.600Z,89.58
2019-04-05T22:33:54.048Z,88.48
2019-04-05T22:36:22.512Z,88.93
2019-04-05T22:38:50.760Z,89.33
2019-04-05T22:41:18.976Z,89.30
2019-04-05T22:43:47.436Z,88.40
2019-04-05T22:46:15.676Z,88.25
2019-04-05T22:48:43.903Z,87.99
2019-04-05T22:51:12.367Z,88.84
2019-04-05T22:53:40.601Z,88.08
2019-04-05T22:56:08.842Z,87.90
2019-04-05T22:58:37.073Z,88.72
2019-04-05T23:01:05.379Z,87.89
2019-04-05T23:03:33.608Z,87.83
2019-04-05T23:06:01.844Z,88.03
2019-04-05T23:08:30.072Z,88.00
2019-04-05T23:10:58.546Z,87.87
2019-04-05T23:13:26.780Z,88.15
2019-04-05T23:15:55.247Z,88.02
2019-04-05T23:18:23.703Z,88.12
2019-04-05T23:20:51.940Z,88.10
2019-04-05T23:23:20.168Z,88.69
2019-04-05T23:25:48.409Z,88.20
2019-04-05T23:28:16.873Z,88.11
2019-04-05T23:30:45.223Z,88.63
2019-04-05T23:33:13.421Z,88.53
2019-04-05T23:35:41.655Z,88.16
2019-04-05T23:38:09.882Z,88.37
2019-04-05T23:40:38.344Z,88.27
2019-04-05T23:43:06.576Z,88.21
2019-04-05T23:45:34.884Z,88.71
2019-04-05T23:48:03.340Z,88.51
2019-04-05T23:50:31.575Z,88.25
2019-04-05T23:52:59.803Z,88.12
2019-04-05T23:55:33.124Z,88.96
2019-04-05T23:57:59.632Z,89.33
